Wesleyville, Canada
Current Conditions -  °F | °C
As of 7:00 AM on Sunday 21 Dec 2014 (Local Time) from CYQX Reporting Station
Overcast Overcast  
Wind Chill: -8°   Ceiling: 1600
Heat Index: -4°   Visibility: 15mi
Dew Point: -7°   Wind: 7mph
Humidity: 80%   Direction: 320°NW
Pressure: 30.26"   Gusts: NA
Location:  49.15°N, 53.58°W
Report Text: CYQX 211000Z 32006KT 270V350 15SM OVC016 M04/M07 A3026 RMK SC8 SLP257
Loading
Personal Weather Stations






























Interactive Weather Map New forecast layout! Learn more

10-Day Weather Forecast

Advertisements
Track Severe Weather on mobile